sensor_id;sensor_type;location;lat;lon;timestamp;P1;durP1;ratioP1;P2;durP2;ratioP2
69369;SDS011;56530;42.640;23.372;2023-08-12T00:00:54;3.15;;;2.95;;
69369;SDS011;56530;42.640;23.372;2023-08-12T00:03:20;3.13;;;2.92;;
69369;SDS011;56530;42.640;23.372;2023-08-12T00:05:46;3.30;;;3.00;;
69369;SDS011;56530;42.640;23.372;2023-08-12T00:08:11;3.15;;;2.85;;
69369;SDS011;56530;42.640;23.372;2023-08-12T00:10:37;3.13;;;2.92;;
69369;SDS011;56530;42.640;23.372;2023-08-12T00:13:02;4.78;;;2.60;;
69369;SDS011;56530;42.640;23.372;2023-08-12T00:15:28;5.25;;;2.70;;
69369;SDS011;56530;42.640;23.372;2023-08-12T00:17:53;5.00;;;4.30;;
69369;SDS011;56530;42.640;23.372;2023-08-12T00:20:19;3.40;;;3.10;;
69369;SDS011;56530;42.640;23.372;2023-08-12T00:22:44;5.00;;;3.20;;
69369;SDS011;56530;42.640;23.372;2023-08-12T00:25:10;6.50;;;2.85;;
69369;SDS011;56530;42.640;23.372;2023-08-12T00:27:35;3.03;;;2.83;;
69369;SDS011;56530;42.640;23.372;2023-08-12T00:30:02;3.17;;;2.88;;
69369;SDS011;56530;42.640;23.372;2023-08-12T00:32:29;2.92;;;2.72;;
69369;SDS011;56530;42.640;23.372;2023-08-12T00:34:54;2.72;;;2.53;;
69369;SDS011;56530;42.640;23.372;2023-08-12T00:37:20;3.15;;;2.85;;
69369;SDS011;56530;42.640;23.372;2023-08-12T00:39:45;3.25;;;3.00;;
69369;SDS011;56530;42.640;23.372;2023-08-12T00:42:10;3.72;;;3.10;;
69369;SDS011;56530;42.640;23.372;2023-08-12T00:44:36;3.53;;;3.22;;
69369;SDS011;56530;42.640;23.372;2023-08-12T00:47:01;3.20;;;2.90;;
69369;SDS011;56530;42.640;23.372;2023-08-12T00:49:27;3.90;;;3.03;;
69369;SDS011;56530;42.640;23.372;2023-08-12T00:51:53;2.80;;;2.55;;
69369;SDS011;56530;42.640;23.372;2023-08-12T00:54:19;2.47;;;2.28;;
69369;SDS011;56530;42.640;23.372;2023-08-12T00:56:48;2.92;;;2.58;;
69369;SDS011;56530;42.640;23.372;2023-08-12T00:59:14;5.20;;;2.83;;
69369;SDS011;56530;42.640;23.372;2023-08-12T01:01:40;5.53;;;2.95;;
69369;SDS011;56530;42.640;23.372;2023-08-12T01:04:09;2.78;;;2.58;;
69369;SDS011;56530;42.640;23.372;2023-08-12T01:06:34;3.50;;;3.00;;
69369;SDS011;56530;42.640;23.372;2023-08-12T01:09:00;3.10;;;2.80;;
69369;SDS011;56530;42.640;23.372;2023-08-12T01:11:28;2.88;;;2.58;;
69369;SDS011;56530;42.640;23.372;2023-08-12T01:14:08;3.45;;;3.05;;
69369;SDS011;56530;42.640;23.372;2023-08-12T01:16:51;3.88;;;2.70;;
69369;SDS011;56530;42.640;23.372;2023-08-12T01:19:29;3.00;;;2.80;;
69369;SDS011;56530;42.640;23.372;2023-08-12T01:21:59;2.80;;;2.60;;
69369;SDS011;56530;42.640;23.372;2023-08-12T01:24:26;5.00;;;3.40;;
69369;SDS011;56530;42.640;23.372;2023-08-12T01:26:52;3.67;;;3.03;;
69369;SDS011;56530;42.640;23.372;2023-08-12T01:29:17;3.22;;;2.92;;
69369;SDS011;56530;42.640;23.372;2023-08-12T01:31:51;3.15;;;2.92;;
69369;SDS011;56530;42.640;23.372;2023-08-12T01:34:25;3.97;;;2.75;;
69369;SDS011;56530;42.640;23.372;2023-08-12T01:37:01;3.00;;;2.80;;
69369;SDS011;56530;42.640;23.372;2023-08-12T01:39:29;3.15;;;2.70;;
69369;SDS011;56530;42.640;23.372;2023-08-12T01:41:55;6.43;;;3.50;;
69369;SDS011;56530;42.640;23.372;2023-08-12T01:44:21;3.22;;;2.92;;
69369;SDS011;56530;42.640;23.372;2023-08-12T01:46:46;3.25;;;2.95;;
69369;SDS011;56530;42.640;23.372;2023-08-12T01:49:12;3.00;;;2.70;;
69369;SDS011;56530;42.640;23.372;2023-08-12T01:51:37;3.00;;;2.80;;
69369;SDS011;56530;42.640;23.372;2023-08-12T01:54:03;4.57;;;3.17;;
69369;SDS011;56530;42.640;23.372;2023-08-12T01:56:28;2.70;;;2.50;;
69369;SDS011;56530;42.640;23.372;2023-08-12T01:58:53;4.90;;;3.03;;
69369;SDS011;56530;42.640;23.372;2023-08-12T02:01:19;3.40;;;3.17;;
69369;SDS011;56530;42.640;23.372;2023-08-12T02:03:44;3.05;;;2.80;;
69369;SDS011;56530;42.640;23.372;2023-08-12T02:06:10;6.13;;;3.00;;
69369;SDS011;56530;42.640;23.372;2023-08-12T02:08:35;3.05;;;2.67;;
69369;SDS011;56530;42.640;23.372;2023-08-12T02:11:00;3.20;;;3.00;;
69369;SDS011;56530;42.640;23.372;2023-08-12T02:13:26;5.05;;;3.30;;
69369;SDS011;56530;42.640;23.372;2023-08-12T02:15:51;3.33;;;3.13;;
69369;SDS011;56530;42.640;23.372;2023-08-12T02:18:16;3.80;;;3.50;;
69369;SDS011;56530;42.640;23.372;2023-08-12T02:20:42;3.13;;;2.92;;
69369;SDS011;56530;42.640;23.372;2023-08-12T02:23:07;3.10;;;2.90;;
69369;SDS011;56530;42.640;23.372;2023-08-12T02:25:33;4.20;;;2.72;;
69369;SDS011;56530;42.640;23.372;2023-08-12T02:27:58;3.28;;;2.92;;
69369;SDS011;56530;42.640;23.372;2023-08-12T02:30:23;3.03;;;2.70;;
69369;SDS011;56530;42.640;23.372;2023-08-12T02:32:49;5.70;;;3.33;;
69369;SDS011;56530;42.640;23.372;2023-08-12T02:35:15;4.07;;;3.35;;
69369;SDS011;56530;42.640;23.372;2023-08-12T02:37:43;4.72;;;3.28;;
69369;SDS011;56530;42.640;23.372;2023-08-12T02:40:08;4.72;;;2.78;;
69369;SDS011;56530;42.640;23.372;2023-08-12T02:42:35;4.10;;;2.83;;
69369;SDS011;56530;42.640;23.372;2023-08-12T02:45:01;7.50;;;3.45;;
69369;SDS011;56530;42.640;23.372;2023-08-12T02:47:26;3.92;;;3.15;;
69369;SDS011;56530;42.640;23.372;2023-08-12T02:49:52;3.85;;;3.00;;
69369;SDS011;56530;42.640;23.372;2023-08-12T02:52:18;4.60;;;3.40;;
69369;SDS011;56530;42.640;23.372;2023-08-12T02:54:43;4.13;;;3.50;;
69369;SDS011;56530;42.640;23.372;2023-08-12T02:57:08;3.22;;;3.03;;
69369;SDS011;56530;42.640;23.372;2023-08-12T02:59:34;3.47;;;2.80;;
69369;SDS011;56530;42.640;23.372;2023-08-12T03:01:59;3.65;;;3.15;;
69369;SDS011;56530;42.640;23.372;2023-08-12T03:04:24;3.25;;;2.92;;
69369;SDS011;56530;42.640;23.372;2023-08-12T03:06:50;4.88;;;3.22;;
69369;SDS011;56530;42.640;23.372;2023-08-12T03:09:15;6.05;;;3.70;;
69369;SDS011;56530;42.640;23.372;2023-08-12T03:11:43;2.97;;;2.78;;
69369;SDS011;56530;42.640;23.372;2023-08-12T03:14:08;3.80;;;3.60;;
69369;SDS011;56530;42.640;23.372;2023-08-12T03:16:34;4.38;;;3.33;;
69369;SDS011;56530;42.640;23.372;2023-08-12T03:19:00;3.05;;;2.85;;
69369;SDS011;56530;42.640;23.372;2023-08-12T03:21:25;6.05;;;3.60;;
69369;SDS011;56530;42.640;23.372;2023-08-12T03:23:51;3.30;;;3.08;;
69369;SDS011;56530;42.640;23.372;2023-08-12T03:26:16;4.22;;;3.20;;
69369;SDS011;56530;42.640;23.372;2023-08-12T03:28:41;7.90;;;3.40;;
69369;SDS011;56530;42.640;23.372;2023-08-12T03:31:07;4.65;;;4.13;;
69369;SDS011;56530;42.640;23.372;2023-08-12T03:33:32;8.60;;;4.57;;
69369;SDS011;56530;42.640;23.372;2023-08-12T03:35:58;5.97;;;4.03;;
69369;SDS011;56530;42.640;23.372;2023-08-12T03:38:24;9.95;;;3.97;;
69369;SDS011;56530;42.640;23.372;2023-08-12T03:40:49;10.05;;;4.15;;
69369;SDS011;56530;42.640;23.372;2023-08-12T03:43:15;3.78;;;3.47;;
69369;SDS011;56530;42.640;23.372;2023-08-12T03:45:43;4.55;;;4.15;;
69369;SDS011;56530;42.640;23.372;2023-08-12T03:48:09;3.38;;;3.08;;
69369;SDS011;56530;42.640;23.372;2023-08-12T03:50:38;4.55;;;3.63;;
69369;SDS011;56530;42.640;23.372;2023-08-12T03:53:04;8.55;;;3.70;;
69369;SDS011;56530;42.640;23.372;2023-08-12T03:55:30;7.30;;;2.90;;
69369;SDS011;56530;42.640;23.372;2023-08-12T03:57:57;2.50;;;2.30;;
69369;SDS011;56530;42.640;23.372;2023-08-12T04:00:23;3.70;;;2.83;;
69369;SDS011;56530;42.640;23.372;2023-08-12T04:02:48;3.38;;;2.30;;
69369;SDS011;56530;42.640;23.372;2023-08-12T04:05:14;3.42;;;2.85;;
69369;SDS011;56530;42.640;23.372;2023-08-12T04:07:39;3.95;;;3.30;;
69369;SDS011;56530;42.640;23.372;2023-08-12T04:10:05;14.60;;;2.85;;
69369;SDS011;56530;42.640;23.372;2023-08-12T04:12:30;2.85;;;2.45;;
69369;SDS011;56530;42.640;23.372;2023-08-12T04:14:56;3.17;;;2.33;;
69369;SDS011;56530;42.640;23.372;2023-08-12T04:17:21;3.13;;;2.38;;
69369;SDS011;56530;42.640;23.372;2023-08-12T04:19:47;3.22;;;2.40;;
69369;SDS011;56530;42.640;23.372;2023-08-12T04:22:12;5.90;;;3.20;;
69369;SDS011;56530;42.640;23.372;2023-08-12T04:24:37;7.03;;;2.80;;
69369;SDS011;56530;42.640;23.372;2023-08-12T04:27:03;6.90;;;2.83;;
69369;SDS011;56530;42.640;23.372;2023-08-12T04:29:29;3.08;;;2.80;;
69369;SDS011;56530;42.640;23.372;2023-08-12T04:31:54;4.40;;;2.63;;
69369;SDS011;56530;42.640;23.372;2023-08-12T04:34:19;5.40;;;2.50;;
69369;SDS011;56530;42.640;23.372;2023-08-12T04:36:45;4.30;;;3.23;;
69369;SDS011;56530;42.640;23.372;2023-08-12T04:39:10;3.00;;;2.70;;
69369;SDS011;56530;42.640;23.372;2023-08-12T04:41:36;7.93;;;3.17;;
69369;SDS011;56530;42.640;23.372;2023-08-12T04:44:03;3.58;;;3.03;;
69369;SDS011;56530;42.640;23.372;2023-08-12T04:46:29;4.85;;;3.00;;
69369;SDS011;56530;42.640;23.372;2023-08-12T04:48:55;6.35;;;3.17;;
69369;SDS011;56530;42.640;23.372;2023-08-12T04:51:20;3.20;;;2.90;;
69369;SDS011;56530;42.640;23.372;2023-08-12T04:53:46;4.90;;;3.20;;
69369;SDS011;56530;42.640;23.372;2023-08-12T04:56:11;3.30;;;3.00;;
69369;SDS011;56530;42.640;23.372;2023-08-12T04:58:36;5.53;;;3.57;;
69369;SDS011;56530;42.640;23.372;2023-08-12T05:01:02;3.10;;;2.80;;
69369;SDS011;56530;42.640;23.372;2023-08-12T05:03:28;7.82;;;3.33;;
69369;SDS011;56530;42.640;23.372;2023-08-12T05:05:53;3.38;;;3.08;;
69369;SDS011;56530;42.640;23.372;2023-08-12T05:08:19;4.00;;;3.50;;
69369;SDS011;56530;42.640;23.372;2023-08-12T05:10:46;6.20;;;2.93;;
69369;SDS011;56530;42.640;23.372;2023-08-12T05:13:13;9.50;;;3.00;;
69369;SDS011;56530;42.640;23.372;2023-08-12T05:15:38;3.85;;;3.38;;
69369;SDS011;56530;42.640;23.372;2023-08-12T05:18:04;4.20;;;3.28;;
69369;SDS011;56530;42.640;23.372;2023-08-12T05:20:30;4.32;;;3.10;;
69369;SDS011;56530;42.640;23.372;2023-08-12T05:22:56;3.50;;;3.20;;
69369;SDS011;56530;42.640;23.372;2023-08-12T05:25:21;6.03;;;3.33;;
69369;SDS011;56530;42.640;23.372;2023-08-12T05:27:46;4.97;;;3.30;;
69369;SDS011;56530;42.640;23.372;2023-08-12T05:30:12;4.50;;;2.50;;
69369;SDS011;56530;42.640;23.372;2023-08-12T05:32:38;3.88;;;2.92;;
69369;SDS011;56530;42.640;23.372;2023-08-12T05:35:03;3.60;;;3.05;;
69369;SDS011;56530;42.640;23.372;2023-08-12T05:37:29;7.70;;;3.28;;
69369;SDS011;56530;42.640;23.372;2023-08-12T05:39:54;4.05;;;2.92;;
69369;SDS011;56530;42.640;23.372;2023-08-12T05:42:19;6.45;;;4.13;;
69369;SDS011;56530;42.640;23.372;2023-08-12T05:44:45;6.18;;;2.97;;
69369;SDS011;56530;42.640;23.372;2023-08-12T05:47:10;7.05;;;3.75;;
69369;SDS011;56530;42.640;23.372;2023-08-12T05:49:35;8.35;;;3.30;;
69369;SDS011;56530;42.640;23.372;2023-08-12T05:52:01;6.35;;;2.33;;
69369;SDS011;56530;42.640;23.372;2023-08-12T05:54:26;6.68;;;3.30;;
69369;SDS011;56530;42.640;23.372;2023-08-12T05:56:52;3.78;;;3.05;;
69369;SDS011;56530;42.640;23.372;2023-08-12T05:59:17;2.97;;;2.78;;
69369;SDS011;56530;42.640;23.372;2023-08-12T06:01:42;3.65;;;2.22;;
69369;SDS011;56530;42.640;23.372;2023-08-12T06:04:08;2.42;;;2.22;;
69369;SDS011;56530;42.640;23.372;2023-08-12T06:06:33;3.67;;;2.17;;
69369;SDS011;56530;42.640;23.372;2023-08-12T06:08:59;5.47;;;2.20;;
69369;SDS011;56530;42.640;23.372;2023-08-12T06:11:24;4.78;;;2.53;;
69369;SDS011;56530;42.640;23.372;2023-08-12T06:13:49;3.13;;;2.45;;
69369;SDS011;56530;42.640;23.372;2023-08-12T06:16:15;3.35;;;2.17;;
69369;SDS011;56530;42.640;23.372;2023-08-12T06:18:40;3.73;;;2.17;;
69369;SDS011;56530;42.640;23.372;2023-08-12T06:21:05;8.83;;;2.50;;
69369;SDS011;56530;42.640;23.372;2023-08-12T06:23:31;4.30;;;2.60;;
69369;SDS011;56530;42.640;23.372;2023-08-12T06:25:56;4.73;;;2.63;;
69369;SDS011;56530;42.640;23.372;2023-08-12T06:28:22;5.55;;;2.13;;
69369;SDS011;56530;42.640;23.372;2023-08-12T06:30:47;4.07;;;2.00;;
69369;SDS011;56530;42.640;23.372;2023-08-12T06:33:13;3.70;;;2.30;;
69369;SDS011;56530;42.640;23.372;2023-08-12T06:35:39;2.92;;;2.40;;
69369;SDS011;56530;42.640;23.372;2023-08-12T06:38:05;3.50;;;2.15;;
69369;SDS011;56530;42.640;23.372;2023-08-12T06:40:30;2.67;;;2.38;;
69369;SDS011;56530;42.640;23.372;2023-08-12T06:42:56;2.55;;;2.35;;
69369;SDS011;56530;42.640;23.372;2023-08-12T06:45:21;3.88;;;2.70;;
69369;SDS011;56530;42.640;23.372;2023-08-12T06:47:49;3.70;;;2.75;;
69369;SDS011;56530;42.640;23.372;2023-08-12T06:50:14;3.85;;;2.80;;
69369;SDS011;56530;42.640;23.372;2023-08-12T06:52:39;3.30;;;3.00;;
69369;SDS011;56530;42.640;23.372;2023-08-12T06:55:05;5.25;;;2.78;;
69369;SDS011;56530;42.640;23.372;2023-08-12T06:57:31;2.95;;;2.60;;
69369;SDS011;56530;42.640;23.372;2023-08-12T06:59:56;4.53;;;3.13;;
69369;SDS011;56530;42.640;23.372;2023-08-12T07:02:22;4.10;;;2.22;;
69369;SDS011;56530;42.640;23.372;2023-08-12T07:04:47;5.65;;;2.35;;
69369;SDS011;56530;42.640;23.372;2023-08-12T07:07:13;5.20;;;2.97;;
69369;SDS011;56530;42.640;23.372;2023-08-12T07:09:38;4.82;;;2.40;;
69369;SDS011;56530;42.640;23.372;2023-08-12T07:12:03;3.35;;;2.25;;
69369;SDS011;56530;42.640;23.372;2023-08-12T07:14:29;5.75;;;2.92;;
69369;SDS011;56530;42.640;23.372;2023-08-12T07:16:54;3.08;;;2.55;;
69369;SDS011;56530;42.640;23.372;2023-08-12T07:19:20;6.20;;;2.33;;
69369;SDS011;56530;42.640;23.372;2023-08-12T07:21:45;6.95;;;2.45;;
69369;SDS011;56530;42.640;23.372;2023-08-12T07:24:11;4.47;;;2.65;;
69369;SDS011;56530;42.640;23.372;2023-08-12T07:26:36;5.50;;;2.50;;
69369;SDS011;56530;42.640;23.372;2023-08-12T07:29:01;9.73;;;3.15;;
69369;SDS011;56530;42.640;23.372;2023-08-12T07:31:27;6.20;;;3.38;;
69369;SDS011;56530;42.640;23.372;2023-08-12T07:33:52;2.97;;;2.78;;
69369;SDS011;56530;42.640;23.372;2023-08-12T07:36:18;3.25;;;2.65;;
69369;SDS011;56530;42.640;23.372;2023-08-12T07:38:43;8.10;;;3.08;;
69369;SDS011;56530;42.640;23.372;2023-08-12T07:41:08;6.85;;;2.65;;
69369;SDS011;56530;42.640;23.372;2023-08-12T07:43:34;7.93;;;2.15;;
69369;SDS011;56530;42.640;23.372;2023-08-12T07:45:59;3.00;;;2.75;;
69369;SDS011;56530;42.640;23.372;2023-08-12T07:48:24;3.10;;;2.53;;
69369;SDS011;56530;42.640;23.372;2023-08-12T07:50:57;3.70;;;2.47;;
69369;SDS011;56530;42.640;23.372;2023-08-12T07:53:22;2.58;;;2.20;;
69369;SDS011;56530;42.640;23.372;2023-08-12T07:55:48;4.60;;;2.38;;
69369;SDS011;56530;42.640;23.372;2023-08-12T07:58:14;3.85;;;2.97;;
69369;SDS011;56530;42.640;23.372;2023-08-12T08:00:39;5.30;;;2.92;;
69369;SDS011;56530;42.640;23.372;2023-08-12T08:03:04;5.97;;;2.67;;
69369;SDS011;56530;42.640;23.372;2023-08-12T08:05:30;2.65;;;2.42;;
69369;SDS011;56530;42.640;23.372;2023-08-12T08:07:55;4.22;;;2.83;;
69369;SDS011;56530;42.640;23.372;2023-08-12T08:10:20;3.53;;;2.55;;
69369;SDS011;56530;42.640;23.372;2023-08-12T08:12:46;2.90;;;2.58;;
69369;SDS011;56530;42.640;23.372;2023-08-12T08:15:11;6.00;;;2.95;;
69369;SDS011;56530;42.640;23.372;2023-08-12T08:17:37;4.95;;;2.50;;
69369;SDS011;56530;42.640;23.372;2023-08-12T08:20:02;3.85;;;3.08;;
69369;SDS011;56530;42.640;23.372;2023-08-12T08:22:30;3.22;;;2.40;;
69369;SDS011;56530;42.640;23.372;2023-08-12T08:24:55;7.32;;;3.55;;
69369;SDS011;56530;42.640;23.372;2023-08-12T08:27:21;2.85;;;2.63;;
69369;SDS011;56530;42.640;23.372;2023-08-12T08:29:46;2.50;;;2.38;;
69369;SDS011;56530;42.640;23.372;2023-08-12T08:32:11;9.02;;;3.13;;
69369;SDS011;56530;42.640;23.372;2023-08-12T08:34:37;3.67;;;2.60;;
69369;SDS011;56530;42.640;23.372;2023-08-12T08:37:02;2.78;;;2.58;;
69369;SDS011;56530;42.640;23.372;2023-08-12T08:39:28;3.03;;;2.55;;
69369;SDS011;56530;42.640;23.372;2023-08-12T08:41:53;2.75;;;2.40;;
69369;SDS011;56530;42.640;23.372;2023-08-12T08:44:20;2.45;;;2.33;;
69369;SDS011;56530;42.640;23.372;2023-08-12T08:46:49;4.90;;;2.67;;
69369;SDS011;56530;42.640;23.372;2023-08-12T08:49:17;4.03;;;2.92;;
69369;SDS011;56530;42.640;23.372;2023-08-12T08:51:42;2.83;;;2.03;;
69369;SDS011;56530;42.640;23.372;2023-08-12T08:54:08;2.17;;;1.98;;
69369;SDS011;56530;42.640;23.372;2023-08-12T08:56:34;2.10;;;2.00;;
69369;SDS011;56530;42.640;23.372;2023-08-12T08:58:59;3.38;;;2.78;;
69369;SDS011;56530;42.640;23.372;2023-08-12T09:01:25;2.53;;;2.33;;
69369;SDS011;56530;42.640;23.372;2023-08-12T09:03:52;2.42;;;2.22;;
69369;SDS011;56530;42.640;23.372;2023-08-12T09:06:19;6.53;;;2.65;;
69369;SDS011;56530;42.640;23.372;2023-08-12T09:08:46;2.67;;;2.47;;
69369;SDS011;56530;42.640;23.372;2023-08-12T09:11:12;5.93;;;2.53;;
69369;SDS011;56530;42.640;23.372;2023-08-12T09:13:38;3.03;;;2.75;;
69369;SDS011;56530;42.640;23.372;2023-08-12T09:16:04;2.60;;;2.40;;
69369;SDS011;56530;42.640;23.372;2023-08-12T09:18:29;2.88;;;2.25;;
69369;SDS011;56530;42.640;23.372;2023-08-12T09:20:55;2.40;;;2.17;;
69369;SDS011;56530;42.640;23.372;2023-08-12T09:23:20;5.60;;;2.53;;
69369;SDS011;56530;42.640;23.372;2023-08-12T09:25:45;3.83;;;2.22;;
69369;SDS011;56530;42.640;23.372;2023-08-12T09:28:11;3.22;;;2.30;;
69369;SDS011;56530;42.640;23.372;2023-08-12T09:30:37;2.95;;;2.58;;
69369;SDS011;56530;42.640;23.372;2023-08-12T09:33:04;4.45;;;2.30;;
69369;SDS011;56530;42.640;23.372;2023-08-12T09:35:32;3.83;;;2.40;;
69369;SDS011;56530;42.640;23.372;2023-08-12T09:38:05;2.78;;;2.47;;
69369;SDS011;56530;42.640;23.372;2023-08-12T09:40:35;5.38;;;2.80;;
69369;SDS011;56530;42.640;23.372;2023-08-12T09:43:01;3.72;;;2.58;;
69369;SDS011;56530;42.640;23.372;2023-08-12T09:45:26;4.43;;;2.38;;
69369;SDS011;56530;42.640;23.372;2023-08-12T09:47:52;4.10;;;3.80;;
69369;SDS011;56530;42.640;23.372;2023-08-12T09:50:23;2.53;;;2.33;;
69369;SDS011;56530;42.640;23.372;2023-08-12T09:52:50;8.57;;;3.08;;
69369;SDS011;56530;42.640;23.372;2023-08-12T09:55:16;4.10;;;2.25;;
69369;SDS011;56530;42.640;23.372;2023-08-12T09:57:43;2.45;;;2.25;;
69369;SDS011;56530;42.640;23.372;2023-08-12T10:00:09;5.70;;;3.58;;
69369;SDS011;56530;42.640;23.372;2023-08-12T10:02:41;5.50;;;3.17;;
69369;SDS011;56530;42.640;23.372;2023-08-12T10:05:09;2.38;;;2.17;;
69369;SDS011;56530;42.640;23.372;2023-08-12T10:07:35;2.30;;;2.13;;
69369;SDS011;56530;42.640;23.372;2023-08-12T10:10:01;3.70;;;2.15;;
69369;SDS011;56530;42.640;23.372;2023-08-12T10:12:27;2.13;;;1.92;;
69369;SDS011;56530;42.640;23.372;2023-08-12T10:14:53;1.70;;;1.60;;
69369;SDS011;56530;42.640;23.372;2023-08-12T10:17:18;2.10;;;2.00;;
69369;SDS011;56530;42.640;23.372;2023-08-12T10:19:44;3.25;;;1.83;;
69369;SDS011;56530;42.640;23.372;2023-08-12T10:22:10;2.78;;;2.60;;
69369;SDS011;56530;42.640;23.372;2023-08-12T10:24:36;2.28;;;2.05;;
69369;SDS011;56530;42.640;23.372;2023-08-12T10:27:01;2.95;;;2.08;;
69369;SDS011;56530;42.640;23.372;2023-08-12T10:29:27;3.50;;;2.50;;
69369;SDS011;56530;42.640;23.372;2023-08-12T10:31:55;4.55;;;2.45;;
69369;SDS011;56530;42.640;23.372;2023-08-12T10:34:22;2.42;;;2.22;;
69369;SDS011;56530;42.640;23.372;2023-08-12T10:36:52;4.53;;;2.65;;
69369;SDS011;56530;42.640;23.372;2023-08-12T10:39:21;2.50;;;2.30;;
69369;SDS011;56530;42.640;23.372;2023-08-12T10:41:49;2.65;;;2.45;;
69369;SDS011;56530;42.640;23.372;2023-08-12T10:44:17;3.20;;;2.83;;
69369;SDS011;56530;42.640;23.372;2023-08-12T10:46:50;2.72;;;2.53;;
69369;SDS011;56530;42.640;23.372;2023-08-12T10:49:18;3.42;;;3.13;;
69369;SDS011;56530;42.640;23.372;2023-08-12T10:51:54;3.85;;;2.13;;
69369;SDS011;56530;42.640;23.372;2023-08-12T10:54:27;2.83;;;2.53;;
69369;SDS011;56530;42.640;23.372;2023-08-12T11:02:18;2.08;;;1.92;;
69369;SDS011;56530;42.640;23.372;2023-08-12T11:07:28;2.75;;;1.90;;
69369;SDS011;56530;42.640;23.372;2023-08-12T11:09:59;3.05;;;1.98;;
69369;SDS011;56530;42.640;23.372;2023-08-12T11:12:29;2.20;;;2.00;;
69369;SDS011;56530;42.640;23.372;2023-08-12T11:14:57;2.13;;;1.83;;
69369;SDS011;56530;42.640;23.372;2023-08-12T11:17:37;5.07;;;2.67;;
69369;SDS011;56530;42.640;23.372;2023-08-12T11:20:04;4.90;;;2.47;;
69369;SDS011;56530;42.640;23.372;2023-08-12T11:22:32;2.35;;;2.20;;
69369;SDS011;56530;42.640;23.372;2023-08-12T11:24:59;2.78;;;1.90;;
69369;SDS011;56530;42.640;23.372;2023-08-12T11:27:25;2.63;;;2.13;;
69369;SDS011;56530;42.640;23.372;2023-08-12T11:29:50;4.32;;;2.00;;
69369;SDS011;56530;42.640;23.372;2023-08-12T11:32:19;1.60;;;1.50;;
69369;SDS011;56530;42.640;23.372;2023-08-12T11:34:44;1.65;;;1.55;;
69369;SDS011;56530;42.640;23.372;2023-08-12T11:37:10;2.28;;;1.83;;
69369;SDS011;56530;42.640;23.372;2023-08-12T11:39:35;2.25;;;2.05;;
69369;SDS011;56530;42.640;23.372;2023-08-12T11:42:02;2.08;;;1.98;;
69369;SDS011;56530;42.640;23.372;2023-08-12T11:44:27;2.42;;;2.22;;
69369;SDS011;56530;42.640;23.372;2023-08-12T11:46:53;1.90;;;1.80;;
69369;SDS011;56530;42.640;23.372;2023-08-12T11:49:18;1.65;;;1.55;;
69369;SDS011;56530;42.640;23.372;2023-08-12T11:51:43;2.80;;;1.58;;
69369;SDS011;56530;42.640;23.372;2023-08-12T11:54:11;1.85;;;1.75;;
69369;SDS011;56530;42.640;23.372;2023-08-12T11:56:36;2.38;;;2.10;;
69369;SDS011;56530;42.640;23.372;2023-08-12T11:59:02;2.38;;;1.70;;
69369;SDS011;56530;42.640;23.372;2023-08-12T12:01:27;1.92;;;1.63;;
69369;SDS011;56530;42.640;23.372;2023-08-12T12:03:53;3.13;;;2.53;;
69369;SDS011;56530;42.640;23.372;2023-08-12T12:06:32;2.42;;;2.15;;
69369;SDS011;56530;42.640;23.372;2023-08-12T12:09:08;1.27;;;1.27;;
69369;SDS011;56530;42.640;23.372;2023-08-12T12:11:37;1.45;;;1.33;;
69369;SDS011;56530;42.640;23.372;2023-08-12T12:14:03;2.47;;;1.85;;
69369;SDS011;56530;42.640;23.372;2023-08-12T12:16:36;1.88;;;1.50;;
69369;SDS011;56530;42.640;23.372;2023-08-12T12:19:24;2.08;;;1.98;;
69369;SDS011;56530;42.640;23.372;2023-08-12T12:21:50;3.83;;;1.77;;
69369;SDS011;56530;42.640;23.372;2023-08-12T12:24:17;2.17;;;1.95;;
69369;SDS011;56530;42.640;23.372;2023-08-12T12:26:43;3.33;;;1.48;;
69369;SDS011;56530;42.640;23.372;2023-08-12T12:29:09;2.10;;;1.90;;
69369;SDS011;56530;42.640;23.372;2023-08-12T12:31:38;1.70;;;1.60;;
69369;SDS011;56530;42.640;23.372;2023-08-12T12:34:04;2.28;;;1.50;;
69369;SDS011;56530;42.640;23.372;2023-08-12T12:36:31;2.92;;;1.73;;
69369;SDS011;56530;42.640;23.372;2023-08-12T12:38:57;2.47;;;2.28;;
69369;SDS011;56530;42.640;23.372;2023-08-12T12:41:22;2.28;;;2.03;;
69369;SDS011;56530;42.640;23.372;2023-08-12T12:43:47;5.07;;;1.83;;
69369;SDS011;56530;42.640;23.372;2023-08-12T12:46:13;2.47;;;1.90;;
69369;SDS011;56530;42.640;23.372;2023-08-12T12:48:40;3.53;;;2.28;;
69369;SDS011;56530;42.640;23.372;2023-08-12T12:51:05;1.70;;;1.60;;
69369;SDS011;56530;42.640;23.372;2023-08-12T12:53:31;5.10;;;1.95;;
69369;SDS011;56530;42.640;23.372;2023-08-12T12:55:56;2.15;;;2.05;;
69369;SDS011;56530;42.640;23.372;2023-08-12T12:58:25;1.90;;;1.80;;
69369;SDS011;56530;42.640;23.372;2023-08-12T13:00:50;2.35;;;2.13;;
69369;SDS011;56530;42.640;23.372;2023-08-12T13:03:16;2.55;;;2.35;;
69369;SDS011;56530;42.640;23.372;2023-08-12T13:05:41;2.20;;;2.00;;
69369;SDS011;56530;42.640;23.372;2023-08-12T13:08:06;2.38;;;2.17;;
69369;SDS011;56530;42.640;23.372;2023-08-12T13:10:33;1.98;;;1.88;;
69369;SDS011;56530;42.640;23.372;2023-08-12T13:12:58;2.35;;;2.15;;
69369;SDS011;56530;42.640;23.372;2023-08-12T13:15:24;2.40;;;2.20;;
69369;SDS011;56530;42.640;23.372;2023-08-12T13:17:51;4.53;;;2.47;;
69369;SDS011;56530;42.640;23.372;2023-08-12T13:20:17;2.13;;;2.03;;
69369;SDS011;56530;42.640;23.372;2023-08-12T13:22:42;2.40;;;2.28;;
69369;SDS011;56530;42.640;23.372;2023-08-12T13:25:07;2.33;;;2.22;;
69369;SDS011;56530;42.640;23.372;2023-08-12T13:27:33;2.55;;;1.80;;
69369;SDS011;56530;42.640;23.372;2023-08-12T13:29:58;2.95;;;2.00;;
69369;SDS011;56530;42.640;23.372;2023-08-12T13:32:24;5.38;;;2.15;;
69369;SDS011;56530;42.640;23.372;2023-08-12T13:34:49;2.50;;;2.00;;
69369;SDS011;56530;42.640;23.372;2023-08-12T13:37:14;2.10;;;1.95;;
69369;SDS011;56530;42.640;23.372;2023-08-12T13:39:40;2.42;;;2.22;;
69369;SDS011;56530;42.640;23.372;2023-08-12T13:42:05;1.90;;;1.80;;
69369;SDS011;56530;42.640;23.372;2023-08-12T13:44:31;2.55;;;2.15;;
69369;SDS011;56530;42.640;23.372;2023-08-12T13:46:56;3.25;;;2.05;;
69369;SDS011;56530;42.640;23.372;2023-08-12T13:49:21;3.88;;;2.17;;
69369;SDS011;56530;42.640;23.372;2023-08-12T13:51:47;1.90;;;1.80;;
69369;SDS011;56530;42.640;23.372;2023-08-12T13:54:12;1.92;;;1.83;;
69369;SDS011;56530;42.640;23.372;2023-08-12T13:56:38;1.73;;;1.63;;
69369;SDS011;56530;42.640;23.372;2023-08-12T13:59:03;2.25;;;2.05;;
69369;SDS011;56530;42.640;23.372;2023-08-12T14:01:29;1.83;;;1.73;;
69369;SDS011;56530;42.640;23.372;2023-08-12T14:03:54;2.63;;;2.42;;
69369;SDS011;56530;42.640;23.372;2023-08-12T14:06:19;2.20;;;2.00;;
69369;SDS011;56530;42.640;23.372;2023-08-12T14:08:45;2.00;;;1.90;;
69369;SDS011;56530;42.640;23.372;2023-08-12T14:11:11;1.77;;;1.67;;
69369;SDS011;56530;42.640;23.372;2023-08-12T14:13:36;1.80;;;1.70;;
69369;SDS011;56530;42.640;23.372;2023-08-12T14:16:01;3.70;;;2.00;;
69369;SDS011;56530;42.640;23.372;2023-08-12T14:18:27;2.15;;;2.05;;
69369;SDS011;56530;42.640;23.372;2023-08-12T14:20:52;3.45;;;2.80;;
69369;SDS011;56530;42.640;23.372;2023-08-12T14:23:17;2.10;;;1.90;;
69369;SDS011;56530;42.640;23.372;2023-08-12T14:25:43;6.38;;;2.17;;
69369;SDS011;56530;42.640;23.372;2023-08-12T14:28:08;2.42;;;2.22;;
69369;SDS011;56530;42.640;23.372;2023-08-12T14:30:33;5.10;;;1.98;;
69369;SDS011;56530;42.640;23.372;2023-08-12T14:32:59;3.05;;;1.80;;
69369;SDS011;56530;42.640;23.372;2023-08-12T14:35:24;5.32;;;1.42;;